Time;durP1;ratioP1;P1;durP2;ratioP2;P2;SDS_P1;SDS_P2;PMS_P1;PMS_P2;Temp;Humidity;BMP_temperature;BMP_pressure;BME280_temperature;BME280_humidity;BME280_pressure;Samples;Min_cycle;Max_cycle;Signal;HPM_P1;HPM_P2
2021/03/11 00:00:15;;;;;;;;;;;;;;;1.36;98.82;95500.09;1027319;28;19918;-62
2021/03/11 00:00:45;;;;;;;;;;;;;;;1.37;98.96;95499.09;1026671;28;19918;-64
2021/03/11 00:01:15;;;;;;;;;;;;;;;1.38;98.79;95500.69;1027399;28;20018;-63
2021/03/11 00:01:46;;;;;;;;;;;;;;;1.38;98.36;95501.47;1023618;28;19937;-63
2021/03/11 00:02:16;;;;;;;;;;;;;;;1.39;98.39;95502.25;1031250;28;19922;-63
2021/03/11 00:02:46;;;;;;;;;;;;;;;1.39;98.31;95499.69;1031272;28;19922;-65
2021/03/11 00:03:19;;;;;;;;;;;;;;;1.38;98.17;95498.91;1027372;28;19922;-63
2021/03/11 00:03:50;;;;;;;;;;;;;;;1.38;98.09;95496.31;1027258;28;20093;-65
2021/03/11 00:04:20;;;;;;;;;;;;;;;1.38;98.27;95495.53;1027219;28;19928;-64
2021/03/11 00:04:50;;;;;;;;;;;;;;;1.40;98.21;95493.50;1023804;28;19929;-63
2021/03/11 00:05:21;;;;;;;;;;;;;;;1.41;97.71;95490.72;1023203;29;19926;-64
2021/03/11 00:05:51;;;;;;;;;;;;;;;1.43;97.44;95493.09;1027264;28;19926;-63
2021/03/11 00:06:22;;;;;;;;;;;;;;;1.43;97.55;95493.09;1023394;28;19918;-64
2021/03/11 00:06:52;;;;;;;;;;;;;;;1.42;97.26;95486.34;1027509;28;19922;-64
2021/03/11 00:07:22;;;;;;;;;;;;;;;1.42;97.32;95486.34;1031473;28;19920;-62
2021/03/11 00:07:52;;;;;;;;;;;;;;;1.42;97.18;95491.50;1031194;28;20414;-64
2021/03/11 00:08:23;;;;;;;;;;;;;;;1.41;97.34;95482.19;1035400;28;19917;-63
2021/03/11 00:08:53;;;;;;;;;;;;;;;1.42;97.26;95492.28;1031186;28;19961;-63
2021/03/11 00:09:23;;;;;;;;;;;;;;;1.43;97.59;95493.09;1031359;28;20323;-65
2021/03/11 00:09:54;;;;;;;;;;;;;;;1.44;96.88;95486.91;1027219;28;19918;-63
2021/03/11 00:10:24;;;;;;;;;;;;;;;1.45;96.79;95491.09;1022884;29;19957;-62
2021/03/11 00:10:54;;;;;;;;;;;;;;;1.46;96.78;95482.31;1023002;28;19930;-63
2021/03/11 00:11:24;;;;;;;;;;;;;;;1.46;96.83;95490.06;1023390;28;19918;-64
2021/03/11 00:11:55;;;;;;;;;;;;;;;1.48;96.56;95489.88;1027339;28;20458;-64
2021/03/11 00:12:25;;;;;;;;;;;;;;;1.47;96.45;95489.06;1027283;28;19922;-63
2021/03/11 00:12:55;;;;;;;;;;;;;;;1.50;96.33;95485.28;1035191;28;19922;-64
2021/03/11 00:13:26;;;;;;;;;;;;;;;1.49;96.07;95491.47;1031526;28;19921;-64
2021/03/11 00:13:56;;;;;;;;;;;;;;;1.50;96.01;95487.84;1031297;28;19940;-63
2021/03/11 00:14:27;;;;;;;;;;;;;;;1.54;95.55;95489.00;1031107;28;19921;-64
2021/03/11 00:14:57;;;;;;;;;;;;;;;1.53;95.08;95490.81;1031328;28;20226;-64
2021/03/11 00:15:27;;;;;;;;;;;;;;;1.53;95.32;95488.22;1031448;28;20102;-63
2021/03/11 00:15:57;;;;;;;;;;;;;;;1.53;95.28;95490.81;1031277;28;19917;-63
2021/03/11 00:16:28;;;;;;;;;;;;;;;1.53;95.32;95495.97;1031253;28;19991;-64
2021/03/11 00:16:58;;;;;;;;;;;;;;;1.53;95.35;95498.56;1027345;28;19960;-63
2021/03/11 00:17:29;;;;;;;;;;;;;;;1.50;95.09;95488.66;1031439;28;19918;-64
2021/03/11 00:17:59;;;;;;;;;;;;;;;1.50;95.33;95493.03;1027175;28;20407;-65
2021/03/11 00:18:29;;;;;;;;;;;;;;;1.51;94.90;95492.84;1027275;28;19928;-62
2021/03/11 00:19:00;;;;;;;;;;;;;;;1.49;94.78;95494.03;1031197;28;19910;-62
2021/03/11 00:19:30;;;;;;;;;;;;;;;1.49;94.68;95497.41;1027247;28;19922;-63
2021/03/11 00:20:01;;;;;;;;;;;;;;;1.48;94.95;95493.25;1031099;28;19925;-65
2021/03/11 00:20:31;;;;;;;;;;;;;;;1.46;95.00;95495.25;1030553;28;19929;-62
2021/03/11 00:21:01;;;;;;;;;;;;;;;1.45;94.94;95491.09;1031250;28;19922;-64
2021/03/11 00:21:31;;;;;;;;;;;;;;;1.45;95.12;95491.09;1031208;28;19933;-64
2021/03/11 00:22:02;;;;;;;;;;;;;;;1.45;94.93;95491.09;1031673;28;19918;-63
2021/03/11 00:22:32;;;;;;;;;;;;;;;1.45;94.23;95493.69;1031525;28;20155;-63
2021/03/11 00:23:02;;;;;;;;;;;;;;;1.46;94.33;95492.66;1027106;28;19922;-64
2021/03/11 00:23:33;;;;;;;;;;;;;;;1.46;94.18;95499.63;1023352;29;19922;-65
2021/03/11 00:24:03;;;;;;;;;;;;;;;1.45;94.47;95493.69;1023235;28;19925;-62
2021/03/11 00:24:33;;;;;;;;;;;;;;;1.46;94.10;95492.66;1018964;29;20368;-64
2021/03/11 00:25:07;;;;;;;;;;;;;;;1.48;93.58;95495.84;1023405;29;20396;-65
2021/03/11 00:25:37;;;;;;;;;;;;;;;1.48;93.34;95493.25;1027674;28;19931;-63
2021/03/11 00:26:07;;;;;;;;;;;;;;;1.48;93.47;95495.84;1031393;28;19921;-63
2021/03/11 00:26:38;;;;;;;;;;;;;;;1.48;93.46;95497.63;1030922;28;20459;-65
2021/03/11 00:27:08;;;;;;;;;;;;;;;1.47;93.60;95501.22;1027343;28;19925;-64
2021/03/11 00:27:38;;;;;;;;;;;;;;;1.47;93.41;95496.03;1023203;28;19921;-64
2021/03/11 00:28:09;;;;;;;;;;;;;;;1.51;92.81;95498.00;1023248;28;20370;-65
2021/03/11 00:28:39;;;;;;;;;;;;;;;1.49;92.31;95499.22;1027135;28;19918;-64
2021/03/11 00:29:09;;;;;;;;;;;;;;;1.52;92.32;95496.22;1027283;28;19924;-63
2021/03/11 00:29:40;;;;;;;;;;;;;;;1.54;92.00;95495.00;1032244;28;20024;-64
2021/03/11 00:30:10;;;;;;;;;;;;;;;1.52;92.45;95491.81;1031381;28;20288;-63
2021/03/11 00:30:41;;;;;;;;;;;;;;;1.52;92.43;95497.00;1026547;28;19918;-64
2021/03/11 00:31:11;;;;;;;;;;;;;;;1.53;92.14;95497.78;1019204;29;19922;-64
2021/03/11 00:31:41;;;;;;;;;;;;;;;1.54;92.24;95492.41;1019136;29;19922;-65
2021/03/11 00:32:11;;;;;;;;;;;;;;;1.54;92.26;95497.59;1019298;29;20409;-63
2021/03/11 00:32:42;;;;;;;;;;;;;;;1.54;92.34;95500.16;1021581;28;19923;-63
2021/03/11 00:33:12;;;;;;;;;;;;;;;1.53;92.38;95493.41;1023044;28;20532;-63
2021/03/11 00:33:42;;;;;;;;;;;;;;;1.54;92.12;95496.75;1023131;28;19925;-63
2021/03/11 00:34:13;;;;;;;;;;;;;;;1.55;92.01;95496.56;1026686;28;19915;-65
2021/03/11 00:34:43;;;;;;;;;;;;;;;1.56;92.09;95492.19;1026806;28;20368;-64
2021/03/11 00:35:13;;;;;;;;;;;;;;;1.55;92.20;95496.56;1027027;28;19922;-62
2021/03/11 00:35:44;;;;;;;;;;;;;;;1.56;91.98;95492.97;1023320;29;20042;-63
2021/03/11 00:36:14;;;;;;;;;;;;;;;1.59;92.08;95494.34;1023270;29;19957;-65
2021/03/11 00:36:44;;;;;;;;;;;;;;;1.58;91.91;95490.97;1019115;29;19922;-63
2021/03/11 00:37:15;;;;;;;;;;;;;;;1.59;91.65;95496.94;1027191;28;19918;-62
2021/03/11 00:37:45;;;;;;;;;;;;;;;1.60;91.80;95494.13;1031368;28;19969;-63
2021/03/11 00:38:16;;;;;;;;;;;;;;;1.60;92.04;95493.34;1027189;28;19933;-64
2021/03/11 00:38:46;;;;;;;;;;;;;;;1.61;91.91;95500.91;1027177;28;19953;-64
2021/03/11 00:39:16;;;;;;;;;;;;;;;1.62;91.55;95499.88;1027045;28;19949;-63
2021/03/11 00:39:47;;;;;;;;;;;;;;;1.63;91.80;95500.69;1027194;28;19922;-62
2021/03/11 00:40:18;;;;;;;;;;;;;;;1.61;92.21;95495.72;1031304;28;19964;-65
2021/03/11 00:40:48;;;;;;;;;;;;;;;1.61;91.93;95500.91;1030477;28;19910;-63
2021/03/11 00:41:18;;;;;;;;;;;;;;;1.61;92.00;95500.09;1030099;28;20285;-65
2021/03/11 00:41:49;;;;;;;;;;;;;;;1.59;92.10;95500.31;1029721;28;20426;-63
2021/03/11 00:42:19;;;;;;;;;;;;;;;1.59;92.30;95502.91;1031158;28;19922;-62
2021/03/11 00:42:49;;;;;;;;;;;;;;;1.58;92.52;95500.53;1031190;28;19926;-64
2021/03/11 00:43:20;;;;;;;;;;;;;;;1.56;93.08;95494.78;1031002;28;20308;-64
2021/03/11 00:43:50;;;;;;;;;;;;;;;1.56;92.88;95498.16;1027339;28;19917;-65
2021/03/11 00:44:20;;;;;;;;;;;;;;;1.56;92.72;95503.31;1027160;28;19925;-65
2021/03/11 00:44:50;;;;;;;;;;;;;;;1.53;93.15;95498.56;1031237;28;19975;-63
2021/03/11 00:45:21;;;;;;;;;;;;;;;1.54;92.89;95494.19;1031227;28;19917;-64
2021/03/11 00:45:51;;;;;;;;;;;;;;;1.54;92.94;95492.41;1027215;28;20462;-64
2021/03/11 00:46:21;;;;;;;;;;;;;;;1.53;93.15;95490.81;1027202;28;19922;-63
2021/03/11 00:46:52;;;;;;;;;;;;;;;1.54;93.06;95489.81;1027042;28;19929;-63
2021/03/11 00:47:22;;;;;;;;;;;;;;;1.56;92.77;95495.56;1019220;29;20337;-63
2021/03/11 00:47:52;;;;;;;;;;;;;;;1.55;93.26;95496.56;1027172;28;20037;-63
2021/03/11 00:48:23;;;;;;;;;;;;;;;1.33;93.10;95461.75;1023035;28;19918;-64
2021/03/11 00:48:53;;;;;;;;;;;;;;;1.54;93.27;95494.19;1019131;28;19927;-63
2021/03/11 00:49:24;;;;;;;;;;;;;;;1.53;93.12;95493.41;1027319;28;20408;-62
2021/03/11 00:49:54;;;;;;;;;;;;;;;1.53;93.08;95490.81;1027162;28;19922;-63
2021/03/11 00:50:24;;;;;;;;;;;;;;;1.54;93.08;95491.59;1030775;28;19921;-64
2021/03/11 00:50:55;;;;;;;;;;;;;;;1.53;93.07;95488.22;1031196;28;19961;-63
2021/03/11 00:51:25;;;;;;;;;;;;;;;1.53;93.26;95493.41;1031535;28;19937;-62
2021/03/11 00:51:55;;;;;;;;;;;;;;;1.51;93.36;95485.06;1031072;28;19922;-64
2021/03/11 00:52:26;;;;;;;;;;;;;;;1.54;93.56;95497.59;1023082;28;19922;-63
2021/03/11 00:52:56;;;;;;;;;;;;;;;1.52;93.52;95497.00;1019182;29;19919;-64
2021/03/11 00:53:26;;;;;;;;;;;;;;;1.54;93.39;95491.59;1019290;29;19994;-64
2021/03/11 00:53:56;;;;;;;;;;;;;;;1.53;93.20;95495.97;1022905;28;19944;-64
2021/03/11 00:54:27;;;;;;;;;;;;;;;1.52;93.25;95491.81;1027227;28;19910;-63
2021/03/11 00:54:57;;;;;;;;;;;;;;;1.52;93.32;95486.66;1031083;28;19921;-64
2021/03/11 00:55:28;;;;;;;;;;;;;;;1.55;93.09;95494.00;1031340;28;20441;-64
2021/03/11 00:55:58;;;;;;;;;;;;;;;1.53;93.02;95495.19;1034879;28;19987;-63
2021/03/11 00:56:28;;;;;;;;;;;;;;;1.53;93.01;95492.59;1027274;28;19933;-64
2021/03/11 00:56:59;;;;;;;;;;;;;;;1.51;93.14;95492.03;1027068;28;19914;-65
2021/03/11 00:57:29;;;;;;;;;;;;;;;1.52;93.24;95494.41;1027200;28;20383;-63
2021/03/11 00:57:59;;;;;;;;;;;;;;;1.53;93.00;95492.59;1027017;28;19918;-64
2021/03/11 00:58:29;;;;;;;;;;;;;;;1.54;93.16;95494.19;1031284;28;20403;-65
2021/03/11 00:59:00;;;;;;;;;;;;;;;1.55;93.44;95496.56;1026977;28;20363;-63
2021/03/11 00:59:30;;;;;;;;;;;;;;;1.54;92.99;95489.81;1023316;29;19918;-64
2021/03/11 01:00:00;;;;;;;;;;;;;;;1.52;93.28;95491.81;1022986;29;19973;-63
2021/03/11 01:00:31;;;;;;;;;;;;;;;1.51;93.03;95482.50;1022796;29;20001;-64
2021/03/11 01:01:01;;;;;;;;;;;;;;;1.53;92.65;95488.22;1030015;28;20443;-64
2021/03/11 01:01:33;;;;;;;;;;;;;;;1.53;92.60;95483.06;1027155;28;19922;-63
2021/03/11 01:02:03;;;;;;;;;;;;;;;1.52;93.04;95481.47;1027069;28;19969;-63
2021/03/11 01:02:34;;;;;;;;;;;;;;;1.52;92.90;95486.66;1026871;28;20351;-63
2021/03/11 01:03:10;;;;;;;;;;;;;;;1.51;92.96;95490.25;1027488;28;20438;-64
2021/03/11 01:03:40;;;;;;;;;;;;;;;1.51;92.83;95484.25;1031237;28;19925;-63
2021/03/11 01:04:11;;;;;;;;;;;;;;;1.54;92.56;95487.25;1030977;28;19925;-63
2021/03/11 01:04:42;;;;;;;;;;;;;;;1.53;92.68;95482.28;1031405;28;19956;-63
2021/03/11 01:05:14;;;;;;;;;;;;;;;1.54;92.50;95484.66;1031128;28;19914;-62
2021/03/11 01:05:45;;;;;;;;;;;;;;;1.56;92.37;95481.84;1027049;28;20359;-64
2021/03/11 01:06:15;;;;;;;;;;;;;;;1.57;92.55;95484.22;1026911;28;20222;-62
2021/03/11 01:06:45;;;;;;;;;;;;;;;1.57;92.34;95473.88;1023499;28;19982;-62
2021/03/11 01:07:16;;;;;;;;;;;;;;;1.58;92.43;95479.84;1027130;28;19968;-63
2021/03/11 01:07:47;;;;;;;;;;;;;;;1.57;91.99;95473.88;1027091;28;19926;-64
2021/03/11 01:08:17;;;;;;;;;;;;;;;1.56;92.16;95477.47;1023157;28;19942;-64
2021/03/11 01:08:47;;;;;;;;;;;;;;;1.56;92.01;95472.28;1026987;28;20393;-64
2021/03/11 01:09:17;;;;;;;;;;;;;;;1.56;92.40;95472.28;1027101;28;19918;-63
2021/03/11 01:09:48;;;;;;;;;;;;;;;1.55;92.42;95475.88;1027315;28;20335;-63
2021/03/11 01:10:18;;;;;;;;;;;;;;;1.55;92.54;95477.69;1031115;28;19917;-63
2021/03/11 01:10:48;;;;;;;;;;;;;;;1.56;92.39;95468.91;1030455;28;19917;-64
2021/03/11 01:11:19;;;;;;;;;;;;;;;1.56;92.42;95472.28;1030870;28;19929;-65
2021/03/11 01:11:49;;;;;;;;;;;;;;;1.57;92.42;95465.31;1031518;28;19959;-64
2021/03/11 01:12:19;;;;;;;;;;;;;;;1.59;92.65;95469.28;1031198;28;19928;-62
2021/03/11 01:12:49;;;;;;;;;;;;;;;1.57;92.59;95473.88;1022903;28;20285;-63
2021/03/11 01:13:20;;;;;;;;;;;;;;;1.58;92.29;95480.63;1023142;29;20428;-65
2021/03/11 01:13:50;;;;;;;;;;;;;;;1.58;92.41;95470.28;1019338;29;19918;-64
2021/03/11 01:14:20;;;;;;;;;;;;;;;1.60;92.35;95468.28;1023064;28;19922;-63
2021/03/11 01:14:51;;;;;;;;;;;;;;;1.59;92.16;95474.47;1026956;28;20593;-64
2021/03/11 01:15:21;;;;;;;;;;;;;;;1.59;92.22;95465.91;1027129;28;19918;-63
2021/03/11 01:15:51;;;;;;;;;;;;;;;1.58;92.47;95478.06;1031288;28;20304;-64
2021/03/11 01:16:22;;;;;;;;;;;;;;;1.59;91.98;95474.47;1030959;28;19976;-64
2021/03/11 01:16:52;;;;;;;;;;;;;;;1.59;92.01;95476.25;1031357;28;20335;-65
2021/03/11 01:17:22;;;;;;;;;;;;;;;1.60;92.16;95470.84;1031077;28;19909;-63
2021/03/11 01:17:53;;;;;;;;;;;;;;;1.60;92.53;95480.41;1031037;28;19964;-64
2021/03/11 01:18:23;;;;;;;;;;;;;;;1.59;91.84;95474.47;1027261;28;19925;-65
2021/03/11 01:18:53;;;;;;;;;;;;;;;1.61;91.89;95485.38;1027014;28;19953;-65
2021/03/11 01:19:24;;;;;;;;;;;;;;;1.60;91.64;95483.78;1027052;28;20029;-64
2021/03/11 01:19:54;;;;;;;;;;;;;;;1.61;91.47;95482.81;1027046;28;19922;-62
2021/03/11 01:20:24;;;;;;;;;;;;;;;1.62;91.66;95481.78;1026633;28;19937;-63
2021/03/11 01:20:54;;;;;;;;;;;;;;;1.62;91.14;95481.78;1026721;28;19972;-65
2021/03/11 01:21:25;;;;;;;;;;;;;;;1.65;90.67;95480.59;1030979;28;19941;-64
2021/03/11 01:21:55;;;;;;;;;;;;;;;1.64;90.81;95479.78;1027023;28;19960;-65
2021/03/11 01:22:25;;;;;;;;;;;;;;;1.65;90.61;95476.19;1031204;28;20312;-64
2021/03/11 01:22:56;;;;;;;;;;;;;;;1.66;90.97;95479.56;1026760;28;19921;-63
2021/03/11 01:23:26;;;;;;;;;;;;;;;1.67;90.86;95477.78;1027138;28;19914;-63
2021/03/11 01:23:57;;;;;;;;;;;;;;;1.65;90.63;95475.41;1031050;28;19945;-63
2021/03/11 01:24:28;;;;;;;;;;;;;;;1.67;90.67;95473.38;1031007;28;19921;-63
2021/03/11 01:24:58;;;;;;;;;;;;;;;1.68;90.00;95469.00;1031258;28;19925;-63
2021/03/11 01:25:28;;;;;;;;;;;;;;;1.69;90.30;95476.56;1031006;28;19972;-64
2021/03/11 01:25:59;;;;;;;;;;;;;;;1.71;90.15;95477.16;1023069;29;19915;-63
2021/03/11 01:26:29;;;;;;;;;;;;;;;1.71;90.39;95471.16;1019085;29;19923;-63
2021/03/11 01:26:59;;;;;;;;;;;;;;;1.72;89.96;95472.75;1019001;29;19919;-64
2021/03/11 01:27:31;;;;;;;;;;;;;;;1.71;90.05;95468.56;1023141;28;19921;-63
2021/03/11 01:28:01;;;;;;;;;;;;;;;1.72;89.76;95470.19;1030947;28;19914;-63
2021/03/11 01:28:31;;;;;;;;;;;;;;;1.72;89.65;95470.19;1031518;28;20297;-63
2021/03/11 01:29:02;;;;;;;;;;;;;;;1.72;90.07;95475.34;1030963;28;19914;-63
2021/03/11 01:29:32;;;;;;;;;;;;;;;1.71;90.29;95471.16;1031059;28;19914;-64
2021/03/11 01:30:03;;;;;;;;;;;;;;;1.70;89.72;95470.38;1026945;28;19914;-63
2021/03/11 01:30:34;;;;;;;;;;;;;;;1.71;89.72;95476.34;1022617;28;19919;-63
2021/03/11 01:31:04;;;;;;;;;;;;;;;1.71;89.91;95468.56;1026954;28;19921;-66
2021/03/11 01:31:34;;;;;;;;;;;;;;;1.70;90.62;95472.97;1026882;28;19922;-66
2021/03/11 01:32:05;;;;;;;;;;;;;;;1.71;90.32;95471.16;1031043;28;19947;-64
2021/03/11 01:32:35;;;;;;;;;;;;;;;1.72;90.48;95472.75;1031042;28;20356;-64
2021/03/11 01:33:05;;;;;;;;;;;;;;;1.70;89.91;95469.59;1026762;28;19921;-66
2021/03/11 01:33:36;;;;;;;;;;;;;;;1.70;89.26;95470.38;1026827;28;19925;-63
2021/03/11 01:34:06;;;;;;;;;;;;;;;1.70;89.89;95479.94;1023100;28;19921;-64
2021/03/11 01:34:36;;;;;;;;;;;;;;;1.69;90.17;95476.56;1027056;28;19918;-63
2021/03/11 01:35:07;;;;;;;;;;;;;;;1.69;90.04;95475.78;1026708;28;19925;-64
2021/03/11 01:35:37;;;;;;;;;;;;;;;1.69;90.43;95475.78;1026765;28;19914;-64
2021/03/11 01:36:07;;;;;;;;;;;;;;;1.70;89.45;95472.19;1031097;28;19987;-63
2021/03/11 01:36:38;;;;;;;;;;;;;;;1.72;89.07;95480.53;1026803;28;20308;-62
2021/03/11 01:37:08;;;;;;;;;;;;;;;1.72;88.88;95483.09;1026972;28;19921;-63
2021/03/11 01:37:38;;;;;;;;;;;;;;;1.72;89.07;95475.34;1026933;28;19918;-63
2021/03/11 01:38:09;;;;;;;;;;;;;;;1.71;89.15;95476.34;1019013;29;19907;-64
2021/03/11 01:38:39;;;;;;;;;;;;;;;1.71;89.54;95468.56;1026910;28;19915;-64
2021/03/11 01:39:09;;;;;;;;;;;;;;;1.69;89.81;95471.38;1026998;28;19918;-63
2021/03/11 01:39:39;;;;;;;;;;;;;;;1.71;89.54;95463.41;1022812;29;20267;-63
2021/03/11 01:40:10;;;;;;;;;;;;;;;1.70;89.91;95467.78;1026858;28;20450;-64
2021/03/11 01:40:40;;;;;;;;;;;;;;;1.71;89.29;95469.38;1026445;28;19926;-66
2021/03/11 01:41:10;;;;;;;;;;;;;;;1.72;89.62;95475.34;1026877;28;19918;-64
2021/03/11 01:41:41;;;;;;;;;;;;;;;1.68;89.64;95472.41;1028877;28;19914;-64
2021/03/11 01:42:11;;;;;;;;;;;;;;;1.70;89.88;95479.94;1026991;28;19914;-66
2021/03/11 01:42:41;;;;;;;;;;;;;;;1.69;90.10;95478.34;1026999;28;19914;-63
2021/03/11 01:43:12;;;;;;;;;;;;;;;1.68;89.97;95472.41;1026897;28;19918;-64
2021/03/11 01:43:42;;;;;;;;;;;;;;;1.67;89.98;95467.44;1027007;28;19918;-64
2021/03/11 01:44:12;;;;;;;;;;;;;;;1.67;90.06;95463.03;1031070;28;19945;-63
2021/03/11 01:44:43;;;;;;;;;;;;;;;1.70;90.14;95464.41;1035125;28;19920;-64
2021/03/11 01:45:13;;;;;;;;;;;;;;;1.67;90.32;95468.22;1030545;28;20407;-63
2021/03/11 01:45:43;;;;;;;;;;;;;;;1.67;90.15;95457.09;1026776;28;20400;-63
2021/03/11 01:46:14;;;;;;;;;;;;;;;1.69;89.79;95455.09;1022927;29;20384;-63
2021/03/11 01:46:44;;;;;;;;;;;;;;;1.68;89.77;95449.13;1022998;28;20169;-63
2021/03/11 01:47:14;;;;;;;;;;;;;;;1.69;89.48;95429.22;1022814;29;19918;-63
2021/03/11 01:47:45;;;;;;;;;;;;;;;1.67;89.65;95426.03;1026976;28;19919;-64
2021/03/11 01:48:15;;;;;;;;;;;;;;;1.67;89.64;95426.84;1022802;28;19921;-62
2021/03/11 01:48:45;;;;;;;;;;;;;;;1.68;89.72;95437.97;1023023;28;20439;-65
2021/03/11 01:49:16;;;;;;;;;;;;;;;1.67;89.91;95438.97;1026917;28;20177;-62
2021/03/11 01:49:46;;;;;;;;;;;;;;;1.69;89.58;95434.41;1027093;28;19914;-64
2021/03/11 01:50:16;;;;;;;;;;;;;;;1.70;88.78;95433.38;1030693;28;19955;-63
2021/03/11 01:50:47;;;;;;;;;;;;;;;1.68;89.00;95438.78;1034328;28;19918;-64
2021/03/11 01:51:21;;;;;;;;;;;;;;;1.70;88.88;95434.16;1030911;28;19914;-63
2021/03/11 01:51:51;;;;;;;;;;;;;;;1.69;89.05;95431.81;1031096;28;19917;-64
2021/03/11 01:52:22;;;;;;;;;;;;;;;1.68;88.70;95430.22;1026765;28;20303;-64
2021/03/11 01:52:52;;;;;;;;;;;;;;;1.70;88.46;95435.97;1027674;28;19917;-63
2021/03/11 01:53:22;;;;;;;;;;;;;;;1.69;88.73;95439.56;1026968;28;19950;-62
2021/03/11 01:53:53;;;;;;;;;;;;;;;1.70;88.89;95430.78;1023347;28;19914;-64
2021/03/11 01:54:23;;;;;;;;;;;;;;;1.70;88.87;95407.53;1026910;28;19921;-62
2021/03/11 01:54:53;;;;;;;;;;;;;;;1.69;89.16;95404.16;1027028;28;20407;-63
2021/03/11 01:55:24;;;;;;;;;;;;;;;1.70;88.98;95404.94;1026890;28;19918;-63
2021/03/11 01:55:54;;;;;;;;;;;;;;;1.70;89.11;95407.53;1026761;28;20020;-63
2021/03/11 01:56:24;;;;;;;;;;;;;;;1.70;89.14;95412.69;1022901;29;20197;-64
2021/03/11 01:56:58;;;;;;;;;;;;;;;1.70;89.46;95415.28;1023010;28;19918;-63
2021/03/11 01:57:28;;;;;;;;;;;;;;;1.70;89.72;95410.88;1027366;28;19958;-67
2021/03/11 01:57:58;;;;;;;;;;;;;;;1.71;89.29;95401.34;1030983;28;19914;-63
2021/03/11 01:58:29;;;;;;;;;;;;;;;1.70;89.61;95384.25;1030964;28;20327;-64
2021/03/11 01:58:59;;;;;;;;;;;;;;;1.69;89.58;95375.69;1026827;28;19953;-63
2021/03/11 01:59:29;;;;;;;;;;;;;;;1.68;89.08;95379.31;1027015;28;19922;-64
2021/03/11 02:00:00;;;;;;;;;;;;;;;1.70;89.19;95379.06;1026952;28;19922;-63
2021/03/11 02:00:31;;;;;;;;;;;;;;;1.71;89.00;95391.00;1022473;28;19926;-63
2021/03/11 02:01:01;;;;;;;;;;;;;;;1.69;89.07;95383.47;1022776;28;19926;-64
2021/03/11 02:01:31;;;;;;;;;;;;;;;1.71;88.98;95383.22;1019229;29;19923;-62
2021/03/11 02:02:02;;;;;;;;;;;;;;;1.70;89.05;95376.50;1023089;29;19962;-65
2021/03/11 02:02:32;;;;;;;;;;;;;;;1.72;88.82;95377.06;1022824;28;20340;-64
2021/03/11 02:03:03;;;;;;;;;;;;;;;1.73;88.79;95368.31;1026903;28;19997;-62
2021/03/11 02:03:34;;;;;;;;;;;;;;;1.72;88.29;95366.72;1030866;28;19973;-63
2021/03/11 02:04:04;;;;;;;;;;;;;;;1.74;88.18;95364.69;1030939;28;19968;-65
2021/03/11 02:04:34;;;;;;;;;;;;;;;1.74;87.92;95362.13;1031192;28;20307;-63
2021/03/11 02:05:05;;;;;;;;;;;;;;;1.74;87.68;95362.91;1030803;28;19976;-63
2021/03/11 02:05:35;;;;;;;;;;;;;;;1.75;87.75;95361.13;1030957;28;20552;-62
2021/03/11 02:06:06;;;;;;;;;;;;;;;1.75;87.83;95359.31;1030958;28;19928;-63
2021/03/11 02:06:36;;;;;;;;;;;;;;;1.76;87.79;95367.88;1026838;28;20323;-63
2021/03/11 02:07:06;;;;;;;;;;;;;;;1.75;87.91;95371.47;1026936;28;19922;-64
2021/03/11 02:07:37;;;;;;;;;;;;;;;1.79;87.54;95364.84;1022749;28;19954;-63
2021/03/11 02:08:07;;;;;;;;;;;;;;;1.80;87.44;95364.63;1023142;28;19914;-63
2021/03/11 02:08:37;;;;;;;;;;;;;;;1.80;87.36;95359.44;1030854;28;19918;-64
2021/03/11 02:09:08;;;;;;;;;;;;;;;1.81;87.62;95357.66;1030885;28;19914;-62
2021/03/11 02:09:38;;;;;;;;;;;;;;;1.83;87.80;95353.84;1026789;28;20355;-64
2021/03/11 02:10:09;;;;;;;;;;;;;;;1.83;87.94;95359.03;1027003;28;19977;-64
2021/03/11 02:10:39;;;;;;;;;;;;;;;1.81;88.17;95352.47;1026201;28;20362;-66
2021/03/11 02:11:14;;;;;;;;;;;;;;;1.81;88.21;95345.53;1026589;28;19965;-62
2021/03/11 02:12:11;;;;;;;;;;;;;;;1.81;87.90;95350.72;1027254;28;20188;-64
2021/03/11 02:12:51;;;;;;;;;;;;;;;1.81;87.88;95349.88;1027792;28;20367;-64
2021/03/11 02:13:23;;;;;;;;;;;;;;;1.84;88.21;95354.63;1026931;28;20034;-64
2021/03/11 02:14:02;;;;;;;;;;;;;;;1.84;88.18;95354.63;1026941;28;20418;-64
2021/03/11 02:14:35;;;;;;;;;;;;;;;1.84;87.70;95349.47;1029501;28;20066;-64
2021/03/11 02:15:22;;;;;;;;;;;;;;;1.88;86.92;95350.63;1024685;28;20308;-63
2021/03/11 02:15:52;;;;;;;;;;;;;;;1.88;87.11;95343.66;1026993;28;19937;-64
2021/03/11 02:16:30;;;;;;;;;;;;;;;1.87;87.39;95336.09;1026679;28;19914;-64
2021/03/11 02:17:01;;;;;;;;;;;;;;;1.88;87.17;95342.88;1033197;28;19920;-62
2021/03/11 02:17:40;;;;;;;;;;;;;;;1.86;87.68;95347.47;1029836;28;20466;-64
2021/03/11 02:18:18;;;;;;;;;;;;;;;1.87;87.89;95343.84;1023097;29;20005;-63
2021/03/11 02:18:53;;;;;;;;;;;;;;;1.86;87.71;95348.25;1022990;29;19915;-62
2021/03/11 02:19:32;;;;;;;;;;;;;;;1.85;87.22;95346.69;1021542;28;19918;-64
2021/03/11 02:20:08;;;;;;;;;;;;;;;1.87;87.14;95344.63;1025530;28;19960;-63
2021/03/11 02:20:41;;;;;;;;;;;;;;;1.89;86.97;95339.25;1024781;28;20360;-65
2021/03/11 02:21:30;;;;;;;;;;;;;;;1.87;86.81;95338.69;1026596;28;19922;-64
2021/03/11 02:22:06;;;;;;;;;;;;;;;1.91;86.37;95337.22;1026980;28;19918;-65
2021/03/11 02:23:00;;;;;;;;;;;;;;;1.92;85.28;95336.25;1026397;28;19918;-63
2021/03/11 02:23:37;;;;;;;;;;;;;;;1.98;85.06;95343.16;1022827;29;19925;-65
2021/03/11 02:24:15;;;;;;;;;;;;;;;1.97;84.59;95333.78;1026988;28;19922;-64
2021/03/11 02:24:59;;;;;;;;;;;;;;;2.00;83.69;95335.16;1030923;28;19965;-64
2021/03/11 02:25:45;;;;;;;;;;;;;;;2.04;83.56;95339.66;1030462;28;19956;-63
2021/03/11 02:26:15;;;;;;;;;;;;;;;2.04;83.57;95334.47;1026779;28;19921;-64
2021/03/11 02:27:00;;;;;;;;;;;;;;;2.07;82.99;95334.03;1027064;28;19914;-64
2021/03/11 02:27:33;;;;;;;;;;;;;;;2.09;83.07;95326.09;1022736;29;19918;-64
2021/03/11 02:28:13;;;;;;;;;;;;;;;2.10;82.43;95333.63;1025207;28;20202;-64
2021/03/11 02:28:58;;;;;;;;;;;;;;;2.14;81.77;95339.13;1023028;29;19946;-64
2021/03/11 02:29:30;;;;;;;;;;;;;;;2.18;81.49;95339.50;1026521;28;19919;-63
2021/03/11 02:30:00;;;;;;;;;;;;;;;2.23;81.02;95337.03;1026478;28;19918;-63
2021/03/11 02:30:31;;;;;;;;;;;;;;;2.26;80.76;95331.44;1024639;28;19949;-65
2021/03/11 02:31:02;;;;;;;;;;;;;;;2.31;80.41;95339.31;1022846;29;20233;-65
2021/03/11 02:31:33;;;;;;;;;;;;;;;2.31;79.73;95334.13;1018778;29;19915;-62
2021/03/11 02:32:03;;;;;;;;;;;;;;;2.32;79.75;95336.53;1019202;29;19910;-64
2021/03/11 02:32:34;;;;;;;;;;;;;;;2.36;78.75;95324.72;1015210;29;19922;-63
2021/03/11 02:33:06;;;;;;;;;;;;;;;2.37;79.08;95328.09;1019164;29;20563;-64
2021/03/11 02:33:36;;;;;;;;;;;;;;;2.38;79.29;95323.69;1023078;28;19914;-63
2021/03/11 02:34:08;;;;;;;;;;;;;;;2.39;79.36;95320.88;1023496;28;20462;-64
2021/03/11 02:34:42;;;;;;;;;;;;;;;2.38;79.53;95314.13;1030980;28;19918;-63
2021/03/11 02:35:13;;;;;;;;;;;;;;;2.38;79.55;95308.94;1026847;28;19988;-63
2021/03/11 02:35:43;;;;;;;;;;;;;;;2.38;79.07;95303.75;1022836;29;20012;-63
2021/03/11 02:36:13;;;;;;;;;;;;;;;2.43;78.75;95295.34;1018894;29;19923;-65
2021/03/11 02:36:43;;;;;;;;;;;;;;;2.42;79.17;95284.22;1015051;29;20014;-63
2021/03/11 02:37:16;;;;;;;;;;;;;;;2.42;79.03;95279.03;1018955;29;20397;-64
2021/03/11 02:37:48;;;;;;;;;;;;;;;2.43;78.90;95277.22;1019463;28;19919;-64
2021/03/11 02:38:18;;;;;;;;;;;;;;;2.43;78.70;95279.81;1023144;28;20424;-63
2021/03/11 02:38:49;;;;;;;;;;;;;;;2.44;78.93;95283.97;1023037;29;19918;-63
2021/03/11 02:39:20;;;;;;;;;;;;;;;2.44;78.98;95296.91;1019182;29;19995;-63
2021/03/11 02:39:53;;;;;;;;;;;;;;;2.45;79.13;95299.28;1015803;29;20399;-63
2021/03/11 02:40:30;;;;;;;;;;;;;;;2.45;78.70;95301.88;1022919;28;19915;-62
2021/03/11 02:41:00;;;;;;;;;;;;;;;2.27;78.30;95268.28;1028104;28;20165;-64
2021/03/11 02:41:31;;;;;;;;;;;;;;;2.49;77.94;95302.22;1025681;28;19976;-63
2021/03/11 02:42:01;;;;;;;;;;;;;;;2.51;77.93;95297.59;1026617;28;20387;-62
2021/03/11 02:42:31;;;;;;;;;;;;;;;2.52;77.66;95299.97;1026765;28;19949;-64
2021/03/11 02:43:02;;;;;;;;;;;;;;;2.52;77.61;95291.44;1022877;29;20018;-64
2021/03/11 02:43:32;;;;;;;;;;;;;;;2.54;77.65;95300.53;1026823;28;19917;-63
2021/03/11 02:44:03;;;;;;;;;;;;;;;2.55;77.85;95301.34;1026945;28;20029;-65
2021/03/11 02:44:33;;;;;;;;;;;;;;;2.57;77.35;95300.09;1022784;28;19910;-64
2021/03/11 02:45:04;;;;;;;;;;;;;;;2.57;77.60;95305.28;1026805;28;19914;-64